Portada
METAR-TAF:

METAR-TAF

Aeroports :

Athens, Tennessee, Estats Units d'Amèrica

latitud: 35-23-50N, longitud: 084-33-45W, altitud: 262 m

Observació

L'informe es va fer fa 11 minuts, a les 15:35 UTC
Vent 6 kt del Est
Temperatura 24°C
Humitat 44%
Pressió 1025 hPa
Visibilitat: 16.1 km
Escasses núvols a una alçada de 5000 ft

METAR: KMMI 011535Z AUTO 08006KT 10SM FEW050 24/11 A3028 RMK A01

Hora: 10:46 (15:46 UTC)


TAF: manca

Observacions i pronòstics meteorològics de més de 4000 aeroports (METAR i TAF).

Les estacions disponibles són els punts grocs i vermells al mapa.

Posi el ratolí al punt desitjat per veure el nom de l'estació.

Feu clic per veure les observacions i els pronòstics meteorològics.

Per canviar el mapa: feu clic els botons verds amb una creu de color negre per apropar; al botó verd amb un guió per allunyar la imatge; o en les fletxes verdes per a mapes adjacents.


METAR-TAF: